Time;durP1;ratioP1;P1;durP2;ratioP2;P2;SDS_P1;SDS_P2;PMS_P1;PMS_P2;Temp;Humidity;BMP_temperature;BMP_pressure;BME280_temperature;BME280_humidity;BME280_pressure;Samples;Min_cycle;Max_cycle;Signal;HPM_P1;HPM_P2
2022/12/24 00:00:23;;;;;;;35.10;26.67;;;8.20;99.90;;;;;;5080365;28;20109;-77
2022/12/24 00:02:49;;;;;;;33.78;26.58;;;8.30;99.90;;;;;;5085524;28;20036;-76
2022/12/24 00:05:15;;;;;;;36.65;26.67;;;8.40;99.90;;;;;;5060615;28;20046;-77
2022/12/24 00:07:40;;;;;;;35.45;25.92;;;8.50;99.90;;;;;;5066269;28;20072;-77
2022/12/24 00:10:07;;;;;;;35.13;26.63;;;8.70;99.90;;;;;;5066927;28;20443;-77
2022/12/24 00:12:33;;;;;;;37.05;26.17;;;8.80;99.90;;;;;;5092088;27;20041;-77
2022/12/24 00:14:58;;;;;;;37.08;26.50;;;8.90;99.90;;;;;;5066355;28;20040;-77
2022/12/24 00:17:24;;;;;;;34.10;25.55;;;8.90;99.90;;;;;;5064754;28;20104;-76
2022/12/24 00:19:49;;;;;;;34.88;25.67;;;9.00;99.90;;;;;;5085113;28;20036;-77
2022/12/24 00:22:15;;;;;;;40.75;26.45;;;9.00;99.90;;;;;;5068189;28;20035;-77
2022/12/24 00:24:41;;;;;;;35.35;24.08;;;9.00;99.90;;;;;;5069868;28;20052;-77
2022/12/24 00:27:06;;;;;;;37.40;24.55;;;9.10;99.90;;;;;;5078996;28;21056;-77
2022/12/24 00:29:32;;;;;;;34.40;23.25;;;9.10;99.90;;;;;;5059518;28;20040;-77
2022/12/24 00:31:58;;;;;;;34.80;22.73;;;9.00;99.90;;;;;;5084082;28;20050;-77
2022/12/24 00:34:24;;;;;;;34.42;22.90;;;9.10;99.90;;;;;;5067094;28;20051;-77
2022/12/24 00:36:50;;;;;;;32.58;22.83;;;9.00;99.90;;;;;;5067097;28;20047;-77
2022/12/24 00:39:16;;;;;;;31.98;21.65;;;9.10;99.90;;;;;;5086225;28;20040;-77
2022/12/24 00:41:42;;;;;;;32.88;21.73;;;9.10;99.90;;;;;;5083381;28;20599;-77
2022/12/24 00:44:11;;;;;;;30.38;21.05;;;9.10;99.90;;;;;;5075130;28;20035;-76
2022/12/24 00:46:39;;;;;;;33.33;21.67;;;9.10;99.90;;;;;;5074626;28;20068;-77
2022/12/24 00:49:05;;;;;;;26.80;19.67;;;9.10;99.90;;;;;;5065711;28;20047;-77
2022/12/24 00:51:32;;;;;;;25.02;18.33;;;9.10;99.90;;;;;;5060478;28;20608;-76
2022/12/24 00:53:58;;;;;;;24.27;17.23;;;9.00;99.90;;;;;;5069423;28;20096;-77
2022/12/24 00:56:23;;;;;;;21.88;14.63;;;9.00;99.90;;;;;;5061353;28;20040;-77
2022/12/24 00:58:50;;;;;;;18.88;14.48;;;9.00;99.90;;;;;;5081609;28;20130;-76
2022/12/24 01:01:16;;;;;;;21.70;13.50;;;9.10;99.90;;;;;;5081583;28;20090;-77
2022/12/24 01:03:42;;;;;;;17.05;12.55;;;9.10;99.90;;;;;;5074536;28;20856;-77
2022/12/24 01:06:20;;;;;;;17.75;13.00;;;9.00;99.90;;;;;;5082141;28;20075;-77
2022/12/24 01:08:49;;;;;;;19.60;12.40;;;9.10;99.90;;;;;;5066076;28;20047;-77
2022/12/24 01:11:15;;;;;;;19.67;12.35;;;9.20;99.90;;;;;;5060503;28;20119;-77
2022/12/24 01:13:41;;;;;;;19.27;11.85;;;9.10;99.90;;;;;;5083751;28;20122;-77
2022/12/24 01:16:19;;;;;;;16.88;11.65;;;9.00;99.90;;;;;;5066715;28;22100;-77
2022/12/24 01:18:44;;;;;;;18.23;11.30;;;9.20;99.90;;;;;;5083370;28;20044;-77
2022/12/24 01:21:10;;;;;;;13.40;10.15;;;9.10;99.90;;;;;;5084222;28;20047;-77
2022/12/24 01:23:36;;;;;;;13.73;10.30;;;9.10;99.90;;;;;;5065527;28;20051;-77
2022/12/24 01:26:03;;;;;;;14.82;11.43;;;9.10;99.90;;;;;;5079398;28;20039;-76
2022/12/24 01:28:29;;;;;;;16.48;11.85;;;9.10;99.90;;;;;;5082699;28;20036;-77
2022/12/24 01:30:54;;;;;;;13.50;11.15;;;9.10;99.90;;;;;;5085981;28;20399;-77
2022/12/24 01:33:20;;;;;;;15.23;12.93;;;9.20;99.90;;;;;;5065235;28;20044;-76
2022/12/24 01:35:46;;;;;;;16.30;13.48;;;9.10;99.90;;;;;;5057260;28;20052;-77
2022/12/24 01:38:12;;;;;;;17.20;14.35;;;9.10;99.90;;;;;;5061637;28;20111;-77
2022/12/24 01:43:27;;;;;;;16.75;15.00;;;9.10;99.90;;;;;;5083975;28;20056;-77
2022/12/24 01:46:02;;;;;;;22.05;14.68;;;9.10;99.90;;;;;;5066806;28;20040;-77
2022/12/24 01:48:40;;;;;;;20.63;14.45;;;9.20;99.90;;;;;;5062769;28;20059;-77
2022/12/24 01:51:23;;;;;;;17.25;13.15;;;9.20;99.90;;;;;;5067652;28;20063;-77
2022/12/24 01:53:54;;;;;;;21.60;13.93;;;9.20;99.90;;;;;;5061608;28;20119;-76
2022/12/24 01:56:20;;;;;;;16.38;13.00;;;9.20;99.90;;;;;;5084404;28;20036;-77
2022/12/24 01:58:51;;;;;;;15.23;13.63;;;9.20;99.90;;;;;;5066619;28;20058;-77
2022/12/24 02:01:17;;;;;;;14.82;12.20;;;9.20;99.90;;;;;;5085575;28;20702;-77
2022/12/24 02:03:43;;;;;;;12.68;10.00;;;9.20;99.90;;;;;;5068233;28;20043;-77
2022/12/24 02:06:14;;;;;;;12.07;8.85;;;9.30;99.90;;;;;;5088960;28;20081;-77
2022/12/24 02:08:40;;;;;;;16.23;7.82;;;9.30;99.90;;;;;;5084167;28;20047;-80
2022/12/24 02:11:17;;;;;;;16.58;7.65;;;9.30;99.90;;;;;;5063010;28;20041;-79
2022/12/24 02:13:46;;;;;;;20.65;7.38;;;9.20;99.90;;;;;;5085351;28;20131;-79
2022/12/24 02:16:27;;;;;;;17.73;7.32;;;9.30;99.90;;;;;;5067223;28;20040;-79
2022/12/24 02:18:58;;;;;;;21.92;7.30;;;9.20;99.90;;;;;;5087758;28;20098;-78
2022/12/24 02:21:32;;;;;;;27.92;8.65;;;9.20;99.90;;;;;;5087349;28;20055;-79
2022/12/24 02:24:25;;;;;;;32.75;10.57;;;9.20;99.90;;;;;;5087641;28;20044;-80
2022/12/24 02:27:28;;;;;;;44.97;10.32;;;9.20;99.90;;;;;;5080934;28;20483;-80
2022/12/24 02:30:19;;;;;;;39.75;9.57;;;9.10;99.90;;;;;;5080915;28;20047;-80
2022/12/24 02:33:00;;;;;;;43.45;9.98;;;9.10;99.90;;;;;;5085282;28;20055;-79
2022/12/24 02:35:46;;;;;;;40.35;10.98;;;9.10;99.90;;;;;;5086650;28;20040;-79
2022/12/24 02:38:27;;;;;;;42.35;11.13;;;9.10;99.90;;;;;;5101226;27;20515;-80
2022/12/24 02:41:01;;;;;;;46.83;12.30;;;9.10;99.90;;;;;;5065779;28;20047;-79
2022/12/24 02:43:35;;;;;;;42.72;13.48;;;9.10;99.90;;;;;;5069965;28;20215;-79
2022/12/24 02:46:10;;;;;;;44.03;11.40;;;9.10;99.90;;;;;;5082325;28;20048;-79
2022/12/24 02:48:37;;;;;;;45.88;11.27;;;9.10;99.90;;;;;;5064636;28;20040;-79
2022/12/24 02:51:08;;;;;;;43.38;10.90;;;9.20;99.90;;;;;;5087369;28;20087;-79
2022/12/24 02:53:35;;;;;;;39.28;9.50;;;9.10;99.90;;;;;;5106262;27;20491;-79
2022/12/24 02:56:17;;;;;;;42.53;8.75;;;9.10;99.90;;;;;;5064954;28;20153;-79
2022/12/24 02:59:06;;;;;;;43.35;8.20;;;9.10;99.90;;;;;;5084332;28;20052;-79
2022/12/24 03:01:59;;;;;;;40.33;7.20;;;9.20;99.90;;;;;;5083113;28;21726;-79
2022/12/24 03:05:04;;;;;;;39.90;7.45;;;9.20;99.90;;;;;;5079632;28;20040;-79
2022/12/24 03:07:51;;;;;;;35.45;6.43;;;9.20;99.90;;;;;;5065026;28;20071;-79
2022/12/24 03:10:20;;;;;;;35.95;6.43;;;9.20;99.90;;;;;;5083526;28;20046;-79
2022/12/24 03:12:53;;;;;;;41.05;7.10;;;9.30;99.90;;;;;;5065989;28;20432;-79
2022/12/24 03:15:23;;;;;;;35.47;7.43;;;9.30;99.90;;;;;;5058240;28;20056;-79
2022/12/24 03:17:51;;;;;;;40.55;7.45;;;9.30;99.90;;;;;;5083447;28;20113;-79
2022/12/24 03:20:24;;;;;;;29.23;6.13;;;9.30;99.90;;;;;;5068273;28;20040;-79
2022/12/24 03:22:50;;;;;;;32.70;7.18;;;9.30;99.90;;;;;;5062640;28;20043;-78
2022/12/24 03:25:16;;;;;;;34.75;6.90;;;9.30;99.90;;;;;;5078557;28;20043;-79
2022/12/24 03:27:42;;;;;;;28.50;5.65;;;9.40;99.90;;;;;;5065455;28;20093;-79
2022/12/24 03:30:11;;;;;;;42.30;7.13;;;9.40;99.90;;;;;;5086848;28;20043;-80
2022/12/24 03:32:37;;;;;;;37.58;6.75;;;9.40;99.90;;;;;;5066968;28;20056;-79
2022/12/24 03:35:05;;;;;;;41.65;7.45;;;9.40;99.90;;;;;;5086064;28;20042;-79
2022/12/24 03:37:30;;;;;;;35.50;6.97;;;9.40;99.90;;;;;;5080954;28;20040;-79
2022/12/24 03:39:56;;;;;;;38.30;6.68;;;9.40;99.90;;;;;;5065443;28;20091;-79
2022/12/24 03:42:21;;;;;;;40.47;7.03;;;9.40;99.90;;;;;;5082180;28;21976;-79
2022/12/24 03:44:47;;;;;;;35.03;6.05;;;9.40;99.90;;;;;;5085492;28;20072;-79
2022/12/24 03:47:13;;;;;;;44.75;7.65;;;9.40;99.90;;;;;;5085914;28;20052;-80
2022/12/24 03:49:38;;;;;;;37.13;8.25;;;9.40;99.90;;;;;;5062131;28;20082;-79
2022/12/24 03:52:04;;;;;;;39.70;7.30;;;9.40;99.90;;;;;;5086376;28;20492;-80
2022/12/24 03:54:30;;;;;;;36.78;7.85;;;9.40;99.90;;;;;;5081283;28;20041;-79
2022/12/24 03:56:55;;;;;;;44.88;8.88;;;9.40;99.90;;;;;;5086012;28;20051;-79
2022/12/24 03:59:21;;;;;;;49.03;8.10;;;9.40;99.90;;;;;;5082538;28;20035;-78
2022/12/24 04:01:46;;;;;;;36.53;7.32;;;9.40;99.90;;;;;;5082747;28;20489;-79
2022/12/24 04:04:12;;;;;;;37.38;7.22;;;9.40;99.90;;;;;;5081726;28;20102;-79
2022/12/24 04:06:38;;;;;;;38.75;7.32;;;9.40;99.90;;;;;;5067775;28;20044;-79
2022/12/24 04:09:03;;;;;;;39.35;7.25;;;9.50;99.90;;;;;;5060013;28;20050;-80
2022/12/24 04:11:30;;;;;;;35.92;7.85;;;9.30;99.90;;;;;;5084571;28;20111;-79
2022/12/24 04:13:56;;;;;;;40.13;8.10;;;9.40;99.90;;;;;;5060996;28;20049;-79
2022/12/24 04:16:22;;;;;;;31.58;6.38;;;9.40;99.90;;;;;;5098388;27;20032;-79
2022/12/24 04:18:48;;;;;;;31.92;6.80;;;9.40;99.90;;;;;;5096886;28;20048;-79
2022/12/24 04:21:13;;;;;;;33.35;6.70;;;9.40;99.90;;;;;;5059753;28;20411;-79
2022/12/24 04:23:40;;;;;;;40.58;8.38;;;9.30;99.90;;;;;;5062680;28;20105;-79
2022/12/24 04:26:08;;;;;;;36.65;6.57;;;9.40;99.90;;;;;;5097485;27;20051;-79
2022/12/24 04:28:34;;;;;;;38.50;7.07;;;9.40;99.90;;;;;;5079473;28;20047;-80
2022/12/24 04:31:02;;;;;;;36.70;7.55;;;9.40;99.90;;;;;;5082373;28;20036;-79
2022/12/24 04:33:28;;;;;;;38.42;7.50;;;9.40;99.90;;;;;;5081732;28;20036;-79
2022/12/24 04:35:57;;;;;;;41.10;7.28;;;9.40;99.90;;;;;;5067561;28;20126;-79
2022/12/24 04:38:22;;;;;;;35.15;6.53;;;9.40;99.90;;;;;;5080522;28;20521;-79
2022/12/24 04:40:48;;;;;;;39.55;8.05;;;9.40;99.90;;;;;;5067832;28;20047;-79
2022/12/24 04:43:14;;;;;;;38.50;7.65;;;9.40;99.90;;;;;;5098007;27;20083;-80
2022/12/24 04:45:40;;;;;;;43.40;8.20;;;9.40;99.90;;;;;;5063349;28;20115;-79
2022/12/24 04:48:05;;;;;;;43.30;8.63;;;9.50;99.90;;;;;;5084291;28;20071;-80
2022/12/24 04:50:31;;;;;;;33.95;7.50;;;9.50;99.90;;;;;;5084716;28;20064;-79
2022/12/24 04:52:57;;;;;;;40.10;7.97;;;9.40;99.90;;;;;;5066746;28;20113;-79
2022/12/24 04:55:23;;;;;;;39.30;7.77;;;9.40;99.90;;;;;;5062182;28;20047;-79
2022/12/24 04:57:48;;;;;;;41.45;8.38;;;9.40;99.90;;;;;;5059780;28;20817;-79
2022/12/24 05:00:14;;;;;;;45.33;8.18;;;9.40;99.90;;;;;;5063724;28;20040;-79
2022/12/24 05:02:40;;;;;;;42.22;7.60;;;9.40;99.90;;;;;;5085607;28;20044;-78
2022/12/24 05:05:06;;;;;;;47.22;8.60;;;9.40;99.90;;;;;;5082824;28;20071;-79
2022/12/24 05:07:33;;;;;;;39.25;7.50;;;9.30;99.90;;;;;;5084568;28;20048;-79
2022/12/24 05:09:58;;;;;;;43.25;7.80;;;9.30;99.90;;;;;;5080639;28;20614;-79
2022/12/24 05:12:24;;;;;;;44.28;8.25;;;9.30;99.90;;;;;;5078232;28;20123;-79
2022/12/24 05:14:50;;;;;;;42.28;8.80;;;9.30;99.90;;;;;;5082075;28;20092;-80
2022/12/24 05:17:15;;;;;;;42.15;8.93;;;9.30;99.90;;;;;;5083816;28;20242;-79
2022/12/24 05:19:41;;;;;;;41.45;7.88;;;9.30;99.90;;;;;;5081613;28;20112;-80
2022/12/24 05:27:35;;;;;;;49.20;8.88;;;9.30;99.90;;;;;;5086361;28;20041;-80
2022/12/24 05:30:00;;;;;;;42.88;8.48;;;9.30;99.90;;;;;;5084521;28;20051;-80
2022/12/24 05:32:27;;;;;;;47.97;8.88;;;9.30;99.90;;;;;;5082598;28;20043;-80
2022/12/24 05:34:53;;;;;;;51.10;9.43;;;9.40;99.90;;;;;;5083792;28;20043;-79
2022/12/24 05:37:18;;;;;;;48.35;8.80;;;9.40;99.90;;;;;;5065760;28;20040;-80
2022/12/24 05:39:44;;;;;;;47.53;8.18;;;9.30;99.90;;;;;;5085448;28;20044;-79
2022/12/24 05:42:09;;;;;;;48.42;9.55;;;9.30;99.90;;;;;;5063121;28;20089;-79
2022/12/24 05:44:36;;;;;;;44.28;8.15;;;9.30;99.90;;;;;;5081657;28;20622;-79
2022/12/24 05:47:01;;;;;;;42.17;8.15;;;9.30;99.90;;;;;;5081677;28;20047;-79
2022/12/24 05:49:27;;;;;;;43.25;8.95;;;9.30;99.90;;;;;;5063535;28;20469;-79
2022/12/24 05:51:53;;;;;;;47.25;9.43;;;9.30;99.90;;;;;;5065252;28;20101;-78
2022/12/24 05:54:18;;;;;;;49.22;8.75;;;9.20;99.90;;;;;;5081041;28;20143;-79
2022/12/24 05:56:44;;;;;;;50.22;8.70;;;9.30;99.90;;;;;;5082761;28;20818;-79
2022/12/24 05:59:10;;;;;;;44.83;8.48;;;9.30;99.90;;;;;;5082199;28;20036;-80
2022/12/24 06:01:35;;;;;;;44.75;8.60;;;9.30;99.90;;;;;;5078307;28;20086;-80
2022/12/24 06:04:01;;;;;;;46.97;9.30;;;9.30;99.90;;;;;;5082896;28;20044;-79
2022/12/24 06:06:27;;;;;;;42.08;8.30;;;9.30;99.90;;;;;;5065433;28;20044;-80
2022/12/24 06:08:54;;;;;;;42.53;8.63;;;9.30;99.90;;;;;;5063625;28;20048;-79
2022/12/24 06:11:24;;;;;;;41.85;7.95;;;9.30;99.90;;;;;;5064130;28;20127;-79
2022/12/24 06:13:51;;;;;;;47.55;8.25;;;9.30;99.90;;;;;;5065153;28;20687;-79
2022/12/24 06:16:18;;;;;;;42.33;7.93;;;9.30;99.90;;;;;;5081134;28;20040;-79
2022/12/24 06:18:44;;;;;;;;;;;9.30;99.90;;;;;;5084160;28;20040;-80
2022/12/24 06:21:10;;;;;;;45.78;7.85;;;9.30;99.90;;;;;;5078349;28;19952;-79
2022/12/24 06:23:38;;;;;;;49.85;8.80;;;9.30;99.90;;;;;;5085016;28;20052;-79
2022/12/24 06:26:06;;;;;;;42.00;8.07;;;9.30;99.90;;;;;;5065593;28;20044;-80
2022/12/24 06:28:35;;;;;;;39.83;8.07;;;9.30;99.90;;;;;;5081962;28;20129;-79
2022/12/24 06:31:01;;;;;;;38.65;7.18;;;9.30;99.90;;;;;;5085198;28;20100;-80
2022/12/24 06:33:27;;;;;;;40.58;7.15;;;9.30;99.90;;;;;;5085290;28;20757;-80
2022/12/24 06:35:53;;;;;;;46.50;8.80;;;9.30;99.90;;;;;;5086486;28;20085;-80
2022/12/24 06:38:18;;;;;;;43.72;7.95;;;9.30;99.90;;;;;;5088637;28;20505;-79
2022/12/24 06:40:45;;;;;;;43.42;8.00;;;9.30;99.90;;;;;;5062529;28;20633;-79
2022/12/24 06:43:12;;;;;;;39.20;7.53;;;9.30;99.90;;;;;;5084771;28;20092;-79
2022/12/24 06:45:38;;;;;;;41.67;7.50;;;9.30;99.90;;;;;;5071514;28;20051;-80
2022/12/24 06:48:05;;;;;;;33.72;6.75;;;9.30;99.90;;;;;;5084436;28;20051;-78
2022/12/24 06:50:32;;;;;;;40.63;7.77;;;9.30;99.90;;;;;;5067647;28;20052;-79
2022/12/24 06:52:58;;;;;;;44.58;8.07;;;9.30;99.90;;;;;;5083991;28;20052;-79
2022/12/24 06:55:23;;;;;;;42.60;7.75;;;9.30;99.90;;;;;;5078762;28;20089;-79
2022/12/24 06:57:49;;;;;;;38.47;7.70;;;9.30;99.90;;;;;;5083639;28;20384;-79
2022/12/24 07:00:15;;;;;;;36.38;7.70;;;9.20;99.90;;;;;;5099995;27;20523;-79
2022/12/24 07:02:42;;;;;;;35.58;7.60;;;9.20;99.90;;;;;;5061349;28;20047;-78
2022/12/24 07:05:10;;;;;;;43.15;8.18;;;9.30;99.90;;;;;;5100223;27;20071;-75
2022/12/24 07:07:43;;;;;;;42.95;8.07;;;9.20;99.90;;;;;;5086601;28;20528;-77
2022/12/24 07:10:14;;;;;;;41.38;7.18;;;9.10;99.90;;;;;;5080521;28;20052;-76
2022/12/24 07:12:41;;;;;;;42.55;8.40;;;9.10;99.90;;;;;;5087699;28;20097;-77
2022/12/24 07:15:08;;;;;;;39.97;7.38;;;9.10;99.90;;;;;;5086989;28;20164;-76
2022/12/24 07:17:34;;;;;;;42.67;7.40;;;9.10;99.90;;;;;;5085872;28;20043;-75
2022/12/24 07:19:59;;;;;;;39.17;6.65;;;9.10;99.90;;;;;;5063704;28;20048;-76
2022/12/24 07:22:25;;;;;;;39.20;7.15;;;9.20;99.90;;;;;;5084949;28;20044;-76
2022/12/24 07:24:51;;;;;;;38.65;7.65;;;9.10;99.90;;;;;;5065202;28;20499;-75
2022/12/24 07:27:17;;;;;;;39.20;7.32;;;9.10;99.90;;;;;;5085072;28;20123;-76
2022/12/24 07:29:42;;;;;;;36.28;6.72;;;9.00;99.90;;;;;;5069131;28;20131;-78
2022/12/24 07:32:08;;;;;;;44.88;7.63;;;9.00;99.90;;;;;;5066529;28;20070;-78
2022/12/24 07:34:34;;;;;;;37.30;7.20;;;9.00;99.90;;;;;;5084203;28;20044;-78
2022/12/24 07:37:00;;;;;;;38.75;8.05;;;9.00;99.90;;;;;;5088341;28;20097;-79
2022/12/24 07:39:25;;;;;;;43.13;8.50;;;9.00;99.90;;;;;;5084803;28;20040;-78
2022/12/24 07:41:51;;;;;;;42.03;7.63;;;8.90;99.90;;;;;;5066760;28;20375;-78
2022/12/24 07:44:17;;;;;;;40.15;7.88;;;9.00;99.90;;;;;;5081733;28;20075;-78
2022/12/24 07:46:43;;;;;;;45.72;8.75;;;8.90;99.90;;;;;;5087595;28;20110;-78
2022/12/24 07:49:09;;;;;;;37.05;7.05;;;8.90;99.90;;;;;;5085338;28;20052;-78
2022/12/24 07:51:36;;;;;;;41.53;7.95;;;8.90;99.90;;;;;;5067547;28;20093;-78
2022/12/24 07:54:03;;;;;;;42.92;8.10;;;8.90;99.90;;;;;;5068788;28;20051;-78
2022/12/24 07:56:30;;;;;;;43.55;9.13;;;8.90;99.90;;;;;;5067392;28;20048;-78
2022/12/24 07:58:56;;;;;;;42.55;9.00;;;8.90;99.90;;;;;;5067894;28;20419;-78
2022/12/24 08:01:22;;;;;;;42.00;7.80;;;8.90;99.90;;;;;;5066041;28;20101;-78
2022/12/24 08:03:53;;;;;;;40.45;7.85;;;8.90;99.90;;;;;;5086931;28;20044;-78
2022/12/24 08:06:22;;;;;;;43.30;8.07;;;8.90;99.90;;;;;;5066960;28;20044;-78
2022/12/24 08:08:48;;;;;;;46.92;8.95;;;8.90;99.90;;;;;;5085495;28;20666;-78
2022/12/24 08:11:14;;;;;;;47.72;8.50;;;8.90;99.90;;;;;;5084936;28;20139;-78
2022/12/24 08:13:40;;;;;;;42.08;8.43;;;8.90;99.90;;;;;;5084735;28;20150;-78
2022/12/24 08:16:06;;;;;;;43.85;8.65;;;9.00;99.90;;;;;;5086089;28;20058;-78
2022/12/24 08:18:32;;;;;;;42.55;8.82;;;9.00;99.90;;;;;;5067234;28;20585;-77
2022/12/24 08:20:58;;;;;;;45.20;9.02;;;9.00;99.90;;;;;;5088271;28;20054;-78
2022/12/24 08:23:24;;;;;;;43.80;9.60;;;9.00;99.90;;;;;;5083563;28;20048;-79
2022/12/24 08:25:50;;;;;;;41.25;8.50;;;9.10;99.90;;;;;;5102029;28;20142;-78
2022/12/24 08:28:19;;;;;;;48.20;9.07;;;9.10;99.90;;;;;;5085340;28;20514;-78
2022/12/24 08:30:47;;;;;;;46.05;9.02;;;9.20;99.90;;;;;;5055459;28;20201;-76
2022/12/24 08:33:13;;;;;;;42.85;9.07;;;9.10;99.90;;;;;;5084462;28;20105;-78
2022/12/24 08:35:38;;;;;;;56.40;10.02;;;9.10;99.90;;;;;;5084255;28;20717;-80
2022/12/24 08:38:04;;;;;;;45.03;9.07;;;9.10;99.90;;;;;;5082190;28;20097;-77
2022/12/24 08:40:30;;;;;;;48.42;9.38;;;9.20;99.90;;;;;;5067781;28;20460;-76
2022/12/24 08:42:55;;;;;;;48.60;9.60;;;9.20;99.90;;;;;;5083701;28;20097;-75
2022/12/24 08:45:21;;;;;;;47.05;9.23;;;9.20;99.90;;;;;;5067036;28;20068;-75
2022/12/24 08:47:47;;;;;;;53.25;9.63;;;9.20;99.90;;;;;;5065612;28;20127;-76
2022/12/24 08:50:13;;;;;;;46.13;9.50;;;9.30;99.90;;;;;;5081615;28;20057;-76
2022/12/24 08:52:39;;;;;;;42.22;8.50;;;9.30;99.90;;;;;;5087663;28;20044;-76
2022/12/24 08:55:05;;;;;;;50.28;9.98;;;9.20;99.90;;;;;;5087269;28;20068;-75
2022/12/24 08:57:30;;;;;;;45.85;9.50;;;9.30;99.90;;;;;;5065265;28;20089;-75
2022/12/24 08:59:56;;;;;;;42.08;8.90;;;9.30;99.90;;;;;;5087745;28;20490;-75
2022/12/24 09:02:22;;;;;;;44.22;9.20;;;9.30;99.90;;;;;;5063083;28;20051;-77
2022/12/24 09:04:48;;;;;;;45.13;9.55;;;9.30;99.90;;;;;;5062697;28;20479;-79
2022/12/24 09:07:13;;;;;;;44.75;9.20;;;9.30;99.90;;;;;;5063793;28;20048;-78
2022/12/24 09:09:39;;;;;;;41.42;8.98;;;9.40;99.90;;;;;;5086896;28;20036;-77
2022/12/24 09:12:06;;;;;;;48.70;9.73;;;9.40;99.90;;;;;;5087235;28;20040;-78
2022/12/24 09:14:31;;;;;;;39.22;8.98;;;9.40;99.90;;;;;;5088028;28;20350;-76
2022/12/24 09:16:58;;;;;;;43.10;9.50;;;9.40;99.90;;;;;;5069485;28;20051;-75
2022/12/24 09:19:24;;;;;;;35.73;9.57;;;9.40;99.90;;;;;;5069142;28;20775;-76
2022/12/24 09:21:49;;;;;;;36.40;9.10;;;9.50;99.90;;;;;;5084600;28;20072;-77
2022/12/24 09:24:15;;;;;;;43.10;9.73;;;9.50;99.90;;;;;;5082162;28;20094;-75
2022/12/24 09:26:41;;;;;;;40.70;10.50;;;9.50;99.90;;;;;;5062424;28;20528;-77
2022/12/24 09:29:08;;;;;;;36.13;8.77;;;9.50;99.90;;;;;;5069240;28;20063;-74
2022/12/24 09:31:34;;;;;;;41.20;9.77;;;9.40;99.90;;;;;;5083974;28;21879;-74
2022/12/24 09:34:00;;;;;;;44.42;10.50;;;9.60;99.90;;;;;;5086020;28;20047;-74
2022/12/24 09:36:25;;;;;;;40.50;9.95;;;9.60;99.90;;;;;;5083449;28;20040;-73
2022/12/24 09:38:51;;;;;;;37.55;9.48;;;9.60;99.90;;;;;;5081755;28;20074;-74
2022/12/24 09:41:34;;;;;;;40.00;9.30;;;9.60;99.90;;;;;;5083524;28;20048;-77
2022/12/24 09:44:18;;;;;;;38.20;9.73;;;9.70;99.90;;;;;;5085914;28;20049;-80
2022/12/24 09:46:46;;;;;;;39.75;9.80;;;9.70;99.90;;;;;;5083491;28;20040;-81
2022/12/24 09:49:18;;;;;;;40.28;10.02;;;9.70;99.90;;;;;;5084904;28;20455;-77
2022/12/24 09:51:51;;;;;;;43.08;10.02;;;9.80;99.90;;;;;;5086137;28;20095;-77
2022/12/24 09:54:24;;;;;;;43.53;9.48;;;9.80;99.90;;;;;;5087508;28;20441;-76
2022/12/24 09:56:50;;;;;;;39.63;10.02;;;9.90;99.90;;;;;;5087310;28;20079;-78
2022/12/24 09:59:25;;;;;;;40.38;10.02;;;9.90;99.90;;;;;;5084566;28;20119;-78
2022/12/24 10:01:53;;;;;;;40.67;9.07;;;9.90;99.90;;;;;;5049822;28;20480;-74
2022/12/24 10:04:30;;;;;;;47.88;9.77;;;9.90;99.90;;;;;;5058166;28;20058;-74
2022/12/24 10:07:34;;;;;;;37.90;9.27;;;9.90;99.90;;;;;;5086471;28;20510;-76
2022/12/24 10:10:38;;;;;;;34.55;8.73;;;10.00;99.90;;;;;;5105722;28;20449;-73
2022/12/24 10:13:07;;;;;;;41.30;9.68;;;10.00;99.90;;;;;;5068704;28;20048;-74
2022/12/24 10:15:37;;;;;;;40.70;8.00;;;10.00;99.90;;;;;;5091226;28;20046;-75
2022/12/24 10:18:25;;;;;;;37.65;9.15;;;10.00;99.90;;;;;;5088095;28;20036;-75
2022/12/24 10:21:03;;;;;;;25.98;7.07;;;10.00;99.90;;;;;;5084216;28;20036;-74
2022/12/24 10:23:53;;;;;;;32.70;6.55;;;9.90;99.90;;;;;;5084983;28;20506;-73
2022/12/24 10:26:51;;;;;;;29.48;6.57;;;9.90;99.90;;;;;;5066462;28;20298;-73
2022/12/24 10:29:22;;;;;;;23.77;6.07;;;9.80;99.90;;;;;;5038013;28;20060;-73
2022/12/24 10:32:16;;;;;;;30.58;6.50;;;9.80;99.90;;;;;;5071046;28;20048;-74
2022/12/24 10:34:44;;;;;;;27.73;6.18;;;9.80;99.90;;;;;;5090419;28;20044;-74
2022/12/24 10:37:18;;;;;;;23.80;5.65;;;9.80;99.90;;;;;;5084084;28;20120;-72
2022/12/24 10:39:43;;;;;;;21.73;5.63;;;9.80;99.90;;;;;;5086547;28;20036;-77
2022/12/24 10:42:12;;;;;;;25.67;5.93;;;9.80;99.90;;;;;;5076871;28;20044;-74
2022/12/24 10:44:37;;;;;;;25.55;6.10;;;9.80;99.90;;;;;;5086662;28;20522;-74
2022/12/24 10:47:06;;;;;;;24.58;6.43;;;9.80;99.90;;;;;;5085573;28;20032;-72
2022/12/24 10:49:59;;;;;;;22.42;5.85;;;9.70;99.90;;;;;;5086598;28;20588;-73
2022/12/24 10:52:31;;;;;;;26.70;6.30;;;9.70;99.90;;;;;;5087628;28;20039;-79
2022/12/24 10:55:16;;;;;;;27.30;6.20;;;9.80;99.90;;;;;;5069670;28;20403;-79
2022/12/24 10:57:43;;;;;;;24.30;5.90;;;9.90;99.90;;;;;;5085601;28;20078;-81
2022/12/24 11:00:23;;;;;;;22.98;5.57;;;9.90;99.90;;;;;;5085221;28;20069;-78
2022/12/24 11:03:07;;;;;;;26.77;5.68;;;9.90;99.90;;;;;;5087358;28;20483;-79
2022/12/24 11:05:35;;;;;;;25.73;6.05;;;9.90;99.90;;;;;;5082520;28;20040;-76
2022/12/24 11:08:13;;;;;;;23.25;6.00;;;9.90;99.90;;;;;;5089450;28;20075;-78
2022/12/24 11:10:52;;;;;;;33.65;7.32;;;9.90;99.90;;;;;;5067264;28;20570;-78
2022/12/24 11:13:34;;;;;;;27.58;6.70;;;9.90;99.90;;;;;;5085839;28;20047;-78
2022/12/24 11:16:22;;;;;;;37.35;7.72;;;10.00;99.90;;;;;;5085175;28;20044;-80
2022/12/24 11:18:51;;;;;;;32.33;7.88;;;10.00;99.90;;;;;;5070601;28;20050;-77
2022/12/24 11:21:24;;;;;;;34.88;8.15;;;10.00;99.90;;;;;;5083691;28;20039;-78
2022/12/24 11:23:58;;;;;;;39.38;9.02;;;10.10;99.90;;;;;;5063636;28;20044;-76
2022/12/24 11:26:28;;;;;;;43.97;9.23;;;10.10;99.90;;;;;;5088638;28;20036;-78
2022/12/24 11:29:20;;;;;;;38.38;8.73;;;10.10;99.90;;;;;;5068564;28;20044;-76
2022/12/24 11:31:46;;;;;;;43.25;9.82;;;10.10;99.90;;;;;;5081835;28;20098;-75
2022/12/24 11:34:28;;;;;;;38.90;8.33;;;10.20;99.90;;;;;;5085081;28;20040;-76
2022/12/24 11:37:08;;;;;;;42.50;9.65;;;10.20;99.90;;;;;;5084309;28;20493;-76
2022/12/24 11:39:40;;;;;;;46.78;9.32;;;10.20;99.90;;;;;;5083640;28;20519;-74
2022/12/24 11:42:06;;;;;;;47.38;9.98;;;10.30;99.90;;;;;;5080486;28;20054;-75
2022/12/24 11:44:32;;;;;;;42.13;9.15;;;10.30;99.90;;;;;;5066114;28;20083;-75
2022/12/24 11:46:57;;;;;;;42.90;9.30;;;10.30;99.90;;;;;;5086717;28;20067;-75
2022/12/24 11:49:24;;;;;;;46.85;10.30;;;10.30;99.90;;;;;;5087805;28;20063;-74
2022/12/24 11:52:08;;;;;;;42.95;8.30;;;10.30;99.90;;;;;;5066308;28;20043;-73
2022/12/24 11:54:51;;;;;;;40.08;9.68;;;10.30;99.90;;;;;;5077047;28;20048;-77
2022/12/24 11:57:19;;;;;;;38.90;7.85;;;10.30;99.90;;;;;;5077921;28;20063;-74
2022/12/24 11:59:49;;;;;;;49.95;9.52;;;10.30;99.90;;;;;;5082337;28;20048;-74
2022/12/24 12:02:38;;;;;;;38.70;7.82;;;10.30;99.90;;;;;;5083114;28;20093;-76
2022/12/24 12:05:12;;;;;;;42.05;8.23;;;10.30;99.90;;;;;;5065295;28;20046;-74
2022/12/24 12:07:38;;;;;;;35.83;8.75;;;10.30;99.90;;;;;;5068558;28;20181;-75
2022/12/24 12:10:17;;;;;;;35.67;7.60;;;10.30;99.90;;;;;;5062857;28;20503;-74
2022/12/24 12:13:09;;;;;;;34.67;6.72;;;10.40;99.90;;;;;;5065764;28;20037;-74
2022/12/24 12:15:50;;;;;;;42.28;7.68;;;10.30;99.90;;;;;;5083370;28;20040;-78
2022/12/24 12:18:20;;;;;;;36.42;7.55;;;10.40;99.90;;;;;;5092327;27;20475;-75
2022/12/24 12:20:59;;;;;;;35.65;7.40;;;10.40;99.90;;;;;;5086371;28;20047;-76
2022/12/24 12:23:37;;;;;;;37.33;7.25;;;10.40;99.90;;;;;;5068063;28;20062;-76
2022/12/24 12:26:05;;;;;;;35.28;8.32;;;10.40;99.90;;;;;;5086667;28;20051;-78
2022/12/24 12:28:35;;;;;;;41.40;7.97;;;10.50;99.90;;;;;;5068074;28;20046;-78
2022/12/24 12:31:29;;;;;;;37.40;7.63;;;10.40;99.90;;;;;;5084697;28;20428;-80
2022/12/24 12:34:37;;;;;;;42.58;8.07;;;10.50;99.90;;;;;;5085225;28;20075;-80
2022/12/24 12:37:43;;;;;;;34.05;6.82;;;10.50;99.90;;;;;;5063214;28;20040;-78
2022/12/24 12:40:16;;;;;;;36.38;7.57;;;10.50;99.90;;;;;;5086668;28;20040;-76
2022/12/24 12:42:55;;;;;;;39.30;8.00;;;10.50;99.90;;;;;;5084401;28;20065;-78
2022/12/24 12:45:27;;;;;;;43.95;7.85;;;10.50;99.90;;;;;;5062081;28;20522;-78
2022/12/24 12:48:26;;;;;;;38.95;7.70;;;10.50;99.90;;;;;;5082771;28;20098;-78
2022/12/24 12:50:54;;;;;;;36.95;7.88;;;10.50;99.90;;;;;;5031998;28;20048;-76
2022/12/24 12:53:37;;;;;;;31.02;6.75;;;10.50;99.90;;;;;;5085103;28;20119;-77
2022/12/24 12:56:31;;;;;;;34.25;6.43;;;10.50;99.90;;;;;;5064258;28;20037;-78
2022/12/24 12:59:07;;;;;;;37.90;7.28;;;10.40;99.90;;;;;;5059114;28;20083;-75
2022/12/24 13:01:56;;;;;;;28.55;6.35;;;10.40;99.90;;;;;;5080905;28;20123;-74
2022/12/24 13:05:06;;;;;;;33.97;7.85;;;10.50;99.90;;;;;;5064335;28;20060;-74
2022/12/24 13:08:00;;;;;;;31.27;6.50;;;10.50;99.90;;;;;;5076255;28;20502;-75